Aérodrome :







RETROUVEZ-NOUS SUR...

 
LOGIN :

S'inscrire | Disclaimer

   EN    FR    IT 

 









Légende :    VFR   VFR Marginal   IFR   IFR Intensif   IFR Très Intensif
Visi : 
Plafond : 
>= 8 km
>= 3000ft
5 à 8 km
1000 à 3000 ft
1500m à 5 km
500 à 1000 ft
800 à 1500m
200 à 500 ft
< 800m
< 200 ft
Symboles :   Orages  Brouillard  Fortes neiges  Fortes précipitations  Vent > 20 kt






- Altitude de l'aérodrome : 9 ft
- Code IATA : SJU


TJSJ - Luis Munoz Marin Int.

DERNIER METAR :
  • 201856Z 08015KT 8SM FEW032 FEW041 29/20 A2999 RMK AO2 SLP153 HZ ALQDS T02890200

METARs EXPIRÉS :
  • 201756Z 11011G18KT 9SM FEW032 SCT041 29/19 A3001 RMK AO2 RAE12 SLP160 HZ ALQDS VCSH SW P0000 60000 T02890194 10294 20244 58029
  • 201656Z 08016KT 9SM -RA FEW034 SCT046 SCT060 28/21 A3005 RMK AO2 RAB56 SLP173 HZ ALQDS P0000 T02780206

TAF TJSJ
Valide du 20 à 18h jusqu'au 21 à 18h UTC


201740Z 2018/2118 09018KT 6SM HZ FEW035 SCT045
FM210000 11009KT 6SM HZ FEW035
FM211300 08013KT 6SM HZ FEW035 FEW045



MET'MAP, la Météo Aéronautique d'un coup d'oeil ! - Copyright ORBIFLY Décembre 2007 - Disclaimer

ORBIFLY MET'MAP TEAM :

Programmation & Développement : Alexandra Zaïnal
Sur une idée originale de : Baudouin d'Aumeries
Assistance à la programmation : Marc-Olivier Méhu
Soutien technique & logistique : Manuel Goepfert

Contact : metmap@orbifly.com




SOURCES & CREDITS :

   NOAA